Terminal Aerodrome Forecast
Issued by NWS

Home | Current Version | Previous Version | Text Only | Print | Product List | Glossary On
Versions: 1 2 3 4 5 6 7 8 9 10 11 12 13 14 15 16 17 18
000
FTUS43 KGRB 241726
TAFATW
TAF
KATW 241726Z 2418/2518 03020G30KT 3SM -SN BR OVC008
      TEMPO 2418/2422 1 1/2SM -FZDZSN BR SCT008 OVC015
     FM242200 01018G26KT 1 1/2SM -FZDZSN BR OVC008
     FM250400 35017G25KT 2SM -SN BR OVC010
     FM251100 32017G25KT P6SM -SN SCT010 OVC020 PROB30 2511/2515 3SM
      -SN BKN010
     FM251500 30017G25KT P6SM SCT012 OVC030=

USA.gov is the U.S. government's official web portal to all federal, state and local government web resources and services.